Latest Coastal Weather Observations for Yamba

IDN60701

Issued at 7:21 am EDT Sunday 11 December 2016 (issued every 10 minutes, with the page automatically refreshed every 10 minutes)

About coastal observations | Map of coastal stations | Coastal observations for NSW | Marine services | Other Formats
Station Details ID: 058012 Name: YAMBA PILOT STATION Lat: -29.43 Lon: 153.36 Height: 27.4 m
Data from the previous 72 hours. | See also: Recent months at Yamba
Date/Time
EDT
Temp
°C
Wind Pressure Rain since
9am
mm
Weather Cloud Vis
km
Sea
Height
m
Swell
Dir  Spd
kts
Gust
kts
hPa Trend Height
m
Period
s
Dir
11/07:00am 22.3 ENE 3 5 1021.5 - 0.0 - - - - - - -
11/06:30am 21.4 ENE 5 7 1021.2 - 0.0 - - - - - - -
11/06:00am 20.5 ENE 4 6 1021.1 - 0.0 - - - - - - -
11/05:30am 20.3 ENE 5 7 1020.8 - 0.0 - - - - - - -
11/05:00am 20.6 NE 5 7 1020.8 - 0.0 - - - - - - -
11/04:30am 21.0 ENE 5 8 1020.7 - 0.0 - - - - - - -
11/04:00am 21.2 ENE 6 9 1020.9 - 0.0 - - - - - - -
11/03:30am 21.2 E 6 9 1020.8 - 0.0 - - - - - - -
11/03:00am 21.3 ENE 7 10 1021.1 - 0.0 - - - - - - -
11/02:30am 21.2 ENE 6 9 1021.1 - 0.0 - - - - - - -
11/02:00am 21.2 ENE 7 11 1021.4 - 0.0 - - - - - - -
11/01:30am 21.2 ENE 7 11 1021.7 - 0.0 - - - - - - -
11/01:00am 21.1 ENE 6 9 1021.9 - 0.0 - - - - - - -
11/12:30am 21.1 ENE 7 10 1022.2 - 0.0 - - - - - - -
11/12:00am 21.1 ENE 7 9 1022.4 - 0.0 - - - - - - -
 
Date/Time
EDT
Temp
°C
Wind Pressure Rain since
9am
mm
Weather Cloud Vis
km
Sea
Height
m
Swell
Dir  Spd
kts
Gust
kts
hPa Trend Height
m
Period
s
Dir
10/11:30pm 21.0 ENE 7 10 1022.5 - 0.0 - - - - - - -
10/11:00pm 21.1 ENE 8 11 1022.6 - 0.0 - - - - - - -
10/10:30pm 21.0 ENE 8 11 1022.6 - 0.0 - - - - - - -
10/10:00pm 21.0 ENE 7 12 1022.4 - 0.0 - - - - - - -
10/09:30pm 20.9 E 7 9 1022.1 - 0.0 - - - - - - -
10/09:00pm 21.1 ENE 7 11 1022.3 - 0.0 - - - - - - -
10/08:30pm 21.2 E 8 11 1022.0 - 0.0 - - - - - - -
10/08:00pm 21.2 E 7 10 1021.8 - 0.0 - - - - - - -
10/07:30pm 21.5 E 7 11 1021.4 - 0.0 - - - - - - -
10/07:00pm 21.7 E 8 11 1021.2 - 0.0 - - - - - - -
10/06:30pm 21.9 E 7 11 1020.9 - 0.0 - - - - - - -
10/06:00pm 22.9 E 7 9 1020.7 - 0.0 - - - - - - -
10/05:30pm 23.2 E 7 11 1020.2 - 0.0 - - - - - - -
10/05:00pm 23.6 E 7 11 1020.1 - 0.0 - - - - - - -
10/04:30pm 23.1 ESE 11 14 1020.3 - 0.0 - - - - - - -
10/04:00pm 23.7 E 8 12 1020.6 - 0.0 - - - - - - -
10/03:30pm 23.0 ESE 11 15 1020.8 - 0.0 - - - - - - -
10/03:00pm 23.9 ESE 11 14 1021.0 - 0.0 - - - - - - -
10/02:30pm 23.4 ESE 10 14 1021.2 - 0.0 - - - - - - -
10/02:00pm 24.2 ESE 11 14 1021.3 - 0.0 - - - - - - -
10/01:30pm 25.3 ESE 8 13 1021.6 - 0.0 - - - - - - -
10/01:00pm 24.9 ESE 10 13 1021.7 - 0.0 - - - - - - -
10/12:30pm 25.0 ESE 9 13 1022.0 - 0.0 - - - - - - -
10/12:00pm 25.1 ESE 8 11 1022.1 - 0.0 - - - - - - -
10/11:30am 24.7 SE 13 15 1022.1 - 0.0 - - - - - - -
10/11:00am 25.4 ESE 11 14 1022.1 - 0.0 - - - - - - -
10/10:30am 24.3 SE 10 13 1021.9 - 0.0 - - - - - - -
10/10:00am 23.1 SE 12 16 1021.8 - 0.0 - - - - - - -
10/09:30am 22.9 SSE 11 15 1021.8 - 0.0 - - - - - - -
10/09:00am 22.4 SSE 8 12 1021.8 - 0.2 - - - - - - -
10/08:30am 21.4 SSE 8 11 1021.5 - 0.2 - - - - - - -
10/08:00am 20.9 SSE 7 9 1021.2 - 0.2 - - - - - - -
10/07:30am 19.9 S 7 9 1020.8 - 0.2 - - - - - - -
10/07:00am 19.5 SSW 5 7 1020.3 - 0.2 - - - - - - -
10/06:30am 19.2 SSW 7 8 1019.7 - 0.2 - - - - - - -
10/06:00am 18.8 SSW 6 7 1019.2 - 0.2 - - - - - - -
10/05:30am 18.9 SSW 7 8 1018.7 - 0.2 - - - - - - -
10/05:00am 18.8 SSW 5 7 1018.2 - 0.2 - - - - - - -
10/04:30am 19.1 S 6 8 1017.9 - 0.2 - - - - - - -
10/04:00am 19.3 S 6 9 1017.6 - 0.2 - - - - - - -
10/03:30am 19.7 S 6 7 1017.3 - 0.2 - - - - - - -
10/03:00am 19.7 SSE 7 8 1017.1 - 0.2 - - - - - - -
10/02:30am 20.2 SSE 8 11 1017.0 - 0.2 - - - - - - -
10/02:00am 20.1 S 6 8 1017.1 - 0.2 - - - - - - -
10/01:30am 20.7 SSE 7 10 1017.0 - 0.2 - - - - - - -
10/01:00am 20.4 SSE 7 9 1017.3 - 0.2 - - - - - - -
10/12:30am 20.1 SSE 6 8 1017.1 - 0.2 - - - - - - -
10/12:00am 20.6 SSE 5 7 1017.2 - 0.2 - - - - - - -
 
Date/Time
EDT
Temp
°C
Wind Pressure Rain since
9am
mm
Weather Cloud Vis
km
Sea
Height
m
Swell
Dir  Spd
kts
Gust
kts
hPa Trend Height
m
Period
s
Dir
09/11:30pm 20.5 SE 7 9 1016.8 - 0.2 - - - - - - -
09/11:00pm 20.6 SE 9 11 1016.5 - 0.2 - - - - - - -
09/10:30pm 20.9 SE 11 14 1016.4 - 0.2 - - - - - - -
09/10:00pm 21.0 SE 10 13 1015.8 - 0.2 - - - - - - -
09/09:30pm 21.0 ESE 10 13 1015.4 - 0.2 - - - - - - -
09/09:00pm 20.9 ESE 10 13 1014.9 - 0.2 - - - - - - -
09/08:30pm 21.0 SE 11 14 1014.4 - 0.2 - - - - - - -
09/08:00pm 21.1 SE 10 12 1013.9 - 0.2 - - - - - - -
09/07:30pm 21.4 ESE 8 11 1013.3 - 0.2 - - - - - - -
09/07:00pm 21.9 SE 9 11 1012.8 - 0.2 - - - - - - -
09/06:30pm 22.7 ESE 9 11 1011.7 - 0.2 - - - - - - -
09/06:00pm 23.5 ESE 8 9 1010.8 - 0.2 - - - - - - -
09/05:30pm 23.6 ESE 9 12 1010.2 - 0.2 - - - - - - -
09/05:00pm 23.9 ESE 8 11 1009.7 - 0.2 - - - - - - -
09/04:30pm 24.3 ESE 9 15 1009.3 - 0.2 - - - - - - -
09/04:00pm 23.7 ESE 9 13 1009.1 - 0.2 - - - - - - -
09/03:30pm 23.9 ESE 11 15 1009.0 - 0.2 - - - - - - -
09/03:00pm 24.1 SE 15 20 1009.0 - 0.2 - - - - - - -
09/02:30pm 24.6 SE 17 20 1008.9 - 0.2 - - - - - - -
09/02:00pm 24.0 SE 15 19 1008.9 - 0.2 - - - - - - -
09/01:30pm 25.2 SE 13 15 1009.0 - 0.0 - - - - - - -
09/01:00pm 27.6 SSE 7 13 1008.9 - 0.0 - - - - - - -
09/12:30pm 26.0 NNE 3 5 1008.9 - 0.0 - - - - - - -
09/12:00pm 28.0 NW 5 7 1008.7 - 0.0 - - - - - - -
09/11:30am 27.0 NNW 5 7 1008.5 - 0.0 - - - - - - -
09/11:00am 25.3 NW 5 6 1008.3 - 0.0 - - - - - - -
09/10:30am 23.8 NW 5 7 1008.1 - 0.0 - - - - - - -
09/10:00am 23.4 NW 4 6 1007.8 - 0.0 - - - - - - -
09/09:30am 23.4 NW 6 8 1007.4 - 0.0 - - - - - - -
09/09:00am 22.8 NW 5 7 1007.1 - 4.6 - - - - - - -
09/08:30am 22.7 NNW 5 6 1007.2 - 4.6 - - - - - - -
09/08:00am 22.8 NNW 5 8 1006.9 - 4.6 - - - - - - -
09/07:30am 22.5 NNW 6 8 1006.5 - 4.6 - - - - - - -
09/07:00am 22.4 NNW 6 8 1006.1 - 4.6 - - - - - - -
09/06:30am 22.2 NNW 7 10 1005.7 - 4.6 - - - - - - -
09/06:00am 21.9 NW 7 8 1004.8 - 4.6 - - - - - - -
09/05:30am 21.8 NW 8 11 1004.8 - 4.6 - - - - - - -
09/05:00am 21.9 NW 7 9 1004.4 - 4.6 - - - - - - -
09/04:30am 21.9 NW 7 9 1004.0 - 4.6 - - - - - - -
09/04:00am 21.9 NW 8 10 1004.1 - 4.6 - - - - - - -
09/03:30am 22.1 NW 5 6 1004.5 - 4.6 - - - - - - -
09/03:00am 22.2 NW 6 7 1004.5 - 4.6 - - - - - - -
09/02:30am 22.3 NNW 9 12 1004.5 - 4.6 - - - - - - -
09/02:00am 22.1 NW 7 9 1004.4 - 4.6 - - - - - - -
09/01:30am 22.1 NW 7 9 1004.8 - 4.6 - - - - - - -
09/01:00am 21.9 NW 7 9 1005.4 - 4.6 - - - - - - -
09/12:30am 21.7 NNW 7 11 1005.8 - 4.6 - - - - - - -
09/12:00am 21.5 NNW 6 8 1006.0 - 4.6 Recent precip. - - - - - -
 
Date/Time
EDT
Temp
°C
Wind Pressure Rain since
9am
mm
Weather Cloud Vis
km
Sea
Height
m
Swell
Dir  Spd
kts
Gust
kts
hPa Trend Height
m
Period
s
Dir
08/11:30pm 21.3 N 5 10 1006.2 - 4.6 - - - - - - -
08/11:00pm 21.6 N 4 6 1006.4 - 4.2 - - - - - - -
08/10:30pm 21.6 NNE 3 7 1006.8 - 4.2 - - - - - - -
08/10:00pm 21.7 NNW 4 5 1007.3 - 3.8 - - - - - - -
08/09:30pm 21.8 WNW 4 7 1007.6 - 2.8 - - - - - - -
08/09:00pm 22.0 SW 6 12 1007.4 - 1.4 Rain - - - - - -
08/08:30pm 23.6 NW 6 8 1006.9 - 0.4 - - - - - - -
08/08:00pm 22.7 N 6 11 1005.6 - 0.0 - - - - - - -
08/07:30pm 22.5 N 6 11 1005.2 - 0.0 - - - - - - -
08/07:00pm 22.4 NNE 8 11 1005.0 - 0.0 - - - - - - -
08/06:30pm 22.9 NNE 8 11 1004.7 - 0.0 - - - - - - -
08/06:00pm 23.8 NNE 6 10 1004.7 - 0.0 - - - - - - -
08/05:30pm 24.7 NNE 7 11 1004.8 - 0.0 - - - - - - -
08/05:00pm 25.7 N 6 11 1005.0 - 0.0 - - - - - - -
08/04:30pm 25.4 N 9 14 1005.1 - 0.0 - - - - - - -
08/04:00pm 25.7 NNE 8 11 1005.8 - 0.0 - - - - - - -
08/03:30pm 25.1 NNE 7 11 1006.5 - 0.0 - - - - - - -
08/03:00pm 25.6 NNE 6 11 1007.4 - 0.0 - - - - - - -
08/02:30pm 25.3 NNE 7 10 1007.9 - 0.0 - - - - - - -
08/02:00pm 25.2 N 5 7 1008.8 - 0.0 - - - - - - -
08/01:30pm 26.4 NNE 5 8 1009.0 - 0.0 - - - - - - -
08/01:00pm 25.2 NNE 5 8 1009.3 - 0.0 - - - - - - -
08/12:30pm 25.0 NNE 5 7 1009.8 - 0.0 - - - - - - -
08/12:00pm 24.3 NNE 4 6 1010.2 - 0.0 - - - - - - -
08/11:30am 23.6 NNE 4 7 1010.6 - 0.0 - - - - - - -
08/11:00am 24.5 NW 5 7 1011.1 - 0.0 - - - - - - -
08/10:30am 24.2 NW 5 7 1011.6 - 0.0 - - - - - - -
08/10:00am 22.6 W 5 7 1012.1 - 0.0 - - - - - - -
08/09:30am 21.7 W 5 8 1012.4 - 0.0 - - - - - - -
08/09:00am 21.0 W 5 7 1012.7 - 3.6 - - - - - - -
08/08:30am 20.7 WSW 5 7 1012.6 - 3.6 - - - - - - -
08/08:00am 20.6 WSW 4 7 1012.6 - 3.6 - - - - - - -
08/07:30am 20.4 WSW 4 7 1012.7 - 3.6 - - - - - - -

Other Formats:

Comma delimited format used in spreadsheet applications
http://www.bom.gov.au/fwo/IDN60701/IDN60701.94589.axf

JavaScript Object Notation format (JSON) in row-major order
http://www.bom.gov.au/fwo/IDN60701/IDN60701.94589.json